Kalamunda, Australia
Current Conditions -  °F | °C
As of 2:00 PM on Saturday 20 Dec 2014 (Local Time) from YPPH Reporting Station
Clear Clear  
Wind Chill: 81°   Ceiling: Unl
Heat Index: 81°   Visibility: 6mi
Dew Point: 59°   Wind: 20mph
Humidity: 48%   Direction: 240°WSW
Pressure: 29.77"   Gusts: NA
Location:  31.97°S, 116.06°E
Report Text: YPPH 200600Z 24017KT CAVOK 27/15 Q1008
Loading
Personal Weather Stations






























Interactive Weather Map New forecast layout! Learn more

10-Day Weather Forecast

Advertisements
Track Severe Weather on mobile